createdAt,value
2022-08-17T00:01:51.238Z,19.90
2022-08-17T00:04:19.888Z,19.80
2022-08-17T00:06:49.044Z,19.80
2022-08-17T00:09:18.505Z,19.80
2022-08-17T00:12:41.694Z,19.80
2022-08-17T00:14:33.644Z,19.80
2022-08-17T00:17:00.524Z,19.80
2022-08-17T00:19:27.884Z,19.80
2022-08-17T00:22:34.704Z,19.70
2022-08-17T00:24:46.378Z,19.70
2022-08-17T00:27:13.158Z,19.70
2022-08-17T00:29:39.957Z,19.70
2022-08-17T00:33:14.350Z,19.70
2022-08-17T00:34:53.753Z,19.70
2022-08-17T00:37:20.513Z,19.70
2022-08-17T00:39:47.396Z,19.70
2022-08-17T00:42:19.029Z,19.60
2022-08-17T00:44:45.874Z,19.60
2022-08-17T00:47:12.684Z,19.70
2022-08-17T00:49:39.556Z,19.60
2022-08-17T00:52:15.607Z,19.60
2022-08-17T00:54:45.486Z,19.50
2022-08-17T00:57:30.023Z,19.50
2022-08-17T01:00:03.015Z,19.40
2022-08-17T01:02:34.978Z,19.50
2022-08-17T01:05:14.700Z,19.50
2022-08-17T01:07:42.790Z,19.40
2022-08-17T01:10:59.139Z,19.40
2022-08-17T01:12:59.932Z,19.50
2022-08-17T01:15:27.169Z,19.40
2022-08-17T01:17:54.083Z,19.30
2022-08-17T01:20:20.959Z,19.30
2022-08-17T01:22:47.815Z,19.20
2022-08-17T01:25:15.381Z,19.30
2022-08-17T01:27:43.010Z,19.20
2022-08-17T01:30:56.784Z,19.30
2022-08-17T01:32:59.645Z,19.30
2022-08-17T01:35:26.492Z,19.20
2022-08-17T01:37:53.328Z,19.10
2022-08-17T01:40:33.668Z,19.20
2022-08-17T01:43:05.900Z,19.20
2022-08-17T01:45:38.614Z,19.10
2022-08-17T01:48:05.769Z,19.10
2022-08-17T01:50:35.217Z,19.10
2022-08-17T01:53:15.505Z,19.00
2022-08-17T01:56:07.843Z,19.00
2022-08-17T01:58:35.412Z,19.10
2022-08-17T02:01:03.512Z,18.90
2022-08-17T02:03:31.946Z,18.90
2022-08-17T02:05:59.280Z,18.90
2022-08-17T02:08:38.934Z,18.90
2022-08-17T02:11:16.925Z,18.90
2022-08-17T02:13:45.661Z,19.00
2022-08-17T02:16:13.048Z,18.90
2022-08-17T02:18:40.475Z,18.80
2022-08-17T02:21:07.900Z,18.90
2022-08-17T02:23:41.595Z,18.90
2022-08-17T02:26:08.543Z,18.70
2022-08-17T02:28:51.038Z,18.80
2022-08-17T02:31:18.362Z,18.70
2022-08-17T02:33:45.137Z,18.80
2022-08-17T02:36:27.338Z,18.80
2022-08-17T02:38:54.329Z,18.70
2022-08-17T02:41:21.109Z,18.70
2022-08-17T02:43:48.061Z,18.70
2022-08-17T02:46:14.823Z,18.60
2022-08-17T02:48:41.828Z,18.70
2022-08-17T02:51:09.148Z,18.60
2022-08-17T02:53:36.317Z,18.60
2022-08-17T02:56:03.459Z,18.60
2022-08-17T02:58:34.670Z,18.50
2022-08-17T03:01:04.927Z,18.40
2022-08-17T03:03:32.113Z,18.40
2022-08-17T03:05:58.893Z,18.40
2022-08-17T03:08:25.913Z,18.40
2022-08-17T03:10:53.250Z,18.40
2022-08-17T03:13:20.796Z,18.40
2022-08-17T03:15:48.724Z,18.30
2022-08-17T03:18:25.111Z,18.30
2022-08-17T03:20:55.200Z,18.30
2022-08-17T03:23:23.725Z,18.30
2022-08-17T03:25:53.288Z,18.20
2022-08-17T03:28:21.574Z,18.20
2022-08-17T03:30:48.390Z,18.20
2022-08-17T03:33:16.238Z,18.20
2022-08-17T03:35:43.373Z,18.20
2022-08-17T03:38:11.855Z,18.20
2022-08-17T03:40:58.504Z,18.10
2022-08-17T03:43:31.716Z,18.20
2022-08-17T03:46:28.528Z,18.20
2022-08-17T03:49:21.871Z,18.20
2022-08-17T03:52:07.343Z,18.20
2022-08-17T03:54:52.612Z,18.10
2022-08-17T03:57:21.113Z,18.10
2022-08-17T03:59:48.063Z,18.00
2022-08-17T04:02:24.313Z,18.00
2022-08-17T04:04:52.253Z,18.00
2022-08-17T04:07:20.929Z,17.70
2022-08-17T04:09:48.266Z,18.00
2022-08-17T04:12:17.615Z,18.00
2022-08-17T04:14:53.347Z,18.00
2022-08-17T04:17:25.149Z,18.00
2022-08-17T04:19:53.208Z,18.00
2022-08-17T04:22:32.896Z,18.00
2022-08-17T04:25:18.173Z,18.00
2022-08-17T04:27:44.987Z,18.10
2022-08-17T04:30:13.205Z,18.10
2022-08-17T04:33:07.214Z,18.10
2022-08-17T04:35:51.355Z,18.10
2022-08-17T04:38:21.067Z,18.10
2022-08-17T04:41:07.229Z,18.10
2022-08-17T04:43:34.718Z,18.20
2022-08-17T04:46:04.734Z,18.10
2022-08-17T04:48:37.065Z,18.10
2022-08-17T04:51:10.538Z,18.10
2022-08-17T04:53:40.066Z,18.20
2022-08-17T04:56:07.993Z,18.20
2022-08-17T04:58:48.485Z,18.30
2022-08-17T05:01:23.709Z,18.30
2022-08-17T05:03:53.429Z,18.30
2022-08-17T05:06:20.519Z,18.30
2022-08-17T05:08:48.045Z,18.30
2022-08-17T05:11:16.106Z,18.40
2022-08-17T05:13:43.921Z,18.30
2022-08-17T05:16:11.777Z,18.40
2022-08-17T05:18:39.126Z,18.50
2022-08-17T05:21:08.192Z,18.50
2022-08-17T05:23:43.124Z,18.40
2022-08-17T05:26:24.758Z,18.50
2022-08-17T05:29:00.475Z,18.60
2022-08-17T05:31:31.123Z,18.70
2022-08-17T05:33:58.568Z,18.70
2022-08-17T05:36:43.021Z,18.70
2022-08-17T05:39:16.507Z,18.80
2022-08-17T05:41:47.741Z,18.80
2022-08-17T05:44:15.159Z,18.80
2022-08-17T05:46:48.042Z,19.00
2022-08-17T05:49:17.961Z,19.10
2022-08-17T05:52:20.135Z,19.20
2022-08-17T05:55:11.780Z,19.50
2022-08-17T05:58:06.570Z,19.50
2022-08-17T06:01:11.552Z,19.50
2022-08-17T06:04:01.488Z,19.60
2022-08-17T06:06:58.086Z,19.70
2022-08-17T06:10:12.392Z,19.70
2022-08-17T06:13:09.770Z,19.70
2022-08-17T06:16:01.848Z,20.00
2022-08-17T06:18:39.153Z,20.00
2022-08-17T06:21:08.465Z,20.00
2022-08-17T06:23:43.303Z,19.90
2022-08-17T06:26:42.933Z,20.00
2022-08-17T06:29:33.488Z,20.30
2022-08-17T06:32:03.573Z,20.20
2022-08-17T06:34:31.507Z,20.40
2022-08-17T06:37:26.628Z,20.40
2022-08-17T06:40:21.793Z,20.50
2022-08-17T06:43:14.775Z,20.60
2022-08-17T06:45:54.251Z,20.70
2022-08-17T06:48:24.452Z,20.90
2022-08-17T06:51:00.131Z,20.80
2022-08-17T06:53:53.452Z,21.00
2022-08-17T06:56:53.919Z,20.90
2022-08-17T06:59:53.200Z,21.00
2022-08-17T07:03:02.278Z,21.20
2022-08-17T07:05:40.629Z,21.20
2022-08-17T07:08:38.094Z,21.30
2022-08-17T07:11:16.045Z,21.40
2022-08-17T07:14:03.295Z,21.60
2022-08-17T07:16:41.463Z,21.90
2022-08-17T07:19:10.922Z,21.90
2022-08-17T07:21:56.134Z,21.90
2022-08-17T07:24:39.407Z,22.00
2022-08-17T07:27:24.913Z,22.50
2022-08-17T07:29:56.995Z,23.20
2022-08-17T07:32:39.841Z,23.10
2022-08-17T07:35:19.891Z,23.40
2022-08-17T07:38:07.154Z,23.50
2022-08-17T07:41:01.918Z,23.60
2022-08-17T07:43:40.911Z,23.80
2022-08-17T07:46:35.204Z,23.80
2022-08-17T07:49:07.913Z,24.30
2022-08-17T07:51:51.005Z,24.40
2022-08-17T07:54:24.972Z,24.50
2022-08-17T07:56:54.228Z,24.50
2022-08-17T07:59:33.373Z,24.30
2022-08-17T08:02:17.740Z,24.10
2022-08-17T08:05:00.904Z,24.20
2022-08-17T08:07:34.822Z,24.00
2022-08-17T08:10:09.309Z,24.30
2022-08-17T08:12:42.429Z,24.20
2022-08-17T08:15:18.933Z,24.10
2022-08-17T08:17:55.745Z,24.20
2022-08-17T08:20:51.533Z,24.40
2022-08-17T08:23:44.788Z,24.10
2022-08-17T08:26:32.520Z,24.40
2022-08-17T08:29:05.163Z,24.40
2022-08-17T08:31:58.763Z,24.50
2022-08-17T08:35:02.926Z,24.60
2022-08-17T08:37:44.802Z,24.30
2022-08-17T08:40:42.901Z,24.60
2022-08-17T08:43:50.859Z,24.30
2022-08-17T08:46:35.389Z,24.60
2022-08-17T08:50:01.349Z,24.40
2022-08-17T08:53:06.430Z,24.80
2022-08-17T08:55:51.873Z,25.00
2022-08-17T08:58:41.647Z,24.80
2022-08-17T09:01:22.740Z,25.20
2022-08-17T09:04:25.557Z,25.50
2022-08-17T09:07:16.383Z,25.80
2022-08-17T09:09:59.379Z,26.20
2022-08-17T09:13:10.800Z,26.50
2022-08-17T09:15:45.352Z,26.70
2022-08-17T09:19:00.954Z,26.60
2022-08-17T09:21:45.778Z,26.60
2022-08-17T09:24:29.247Z,26.70
2022-08-17T09:27:48.044Z,26.90
2022-08-17T09:30:15.407Z,27.10
2022-08-17T09:32:49.922Z,27.10
2022-08-17T09:35:25.254Z,27.40
2022-08-17T09:38:22.218Z,27.60
2022-08-17T09:41:04.301Z,27.70
2022-08-17T09:43:53.626Z,27.50
2022-08-17T09:46:31.143Z,27.40
2022-08-17T09:49:09.735Z,27.40
2022-08-17T09:51:41.495Z,27.20
2022-08-17T09:54:39.124Z,27.20
2022-08-17T09:57:32.738Z,27.20
2022-08-17T10:00:11.085Z,27.30
2022-08-17T10:03:21.110Z,27.40
2022-08-17T10:05:56.513Z,27.50
2022-08-17T10:08:44.957Z,27.60
2022-08-17T10:11:51.957Z,27.60
2022-08-17T10:14:36.277Z,27.50
2022-08-17T10:17:23.087Z,27.40
2022-08-17T10:19:58.577Z,27.30
2022-08-17T10:22:58.611Z,27.50
2022-08-17T10:26:00.295Z,27.60
2022-08-17T10:28:32.534Z,27.50
2022-08-17T10:34:04.360Z,27.30
2022-08-17T10:36:58.919Z,27.20
2022-08-17T10:39:52.139Z,27.00
2022-08-17T10:42:34.797Z,27.10
2022-08-17T10:45:14.914Z,27.00
2022-08-17T10:48:08.323Z,27.00
2022-08-17T10:50:57.563Z,26.90
2022-08-17T10:53:33.139Z,26.90
2022-08-17T10:56:11.846Z,26.90
2022-08-17T10:58:45.684Z,26.80
2022-08-17T11:01:12.954Z,26.70
2022-08-17T11:03:58.261Z,26.70
2022-08-17T11:06:37.248Z,26.80
2022-08-17T11:09:19.930Z,27.00
2022-08-17T11:12:11.582Z,26.90
2022-08-17T11:15:10.979Z,27.10
2022-08-17T11:17:57.455Z,27.10
2022-08-17T11:20:24.351Z,27.10
2022-08-17T11:23:20.253Z,27.10
2022-08-17T11:26:01.880Z,27.20
2022-08-17T11:28:59.041Z,27.00
2022-08-17T11:31:40.452Z,27.00
2022-08-17T11:34:26.641Z,27.00
2022-08-17T11:37:26.025Z,27.10
2022-08-17T11:40:15.868Z,27.20
2022-08-17T11:42:53.345Z,27.20
2022-08-17T11:45:41.387Z,27.10
2022-08-17T11:48:49.846Z,27.10
2022-08-17T11:51:33.959Z,27.10
2022-08-17T11:57:26.897Z,27.40
2022-08-17T12:00:13.199Z,27.50
2022-08-17T12:02:47.783Z,27.60
2022-08-17T12:05:17.949Z,27.70
2022-08-17T12:08:04.035Z,27.70
2022-08-17T12:10:35.468Z,27.60
2022-08-17T12:13:14.238Z,27.50
2022-08-17T12:15:50.382Z,27.30
2022-08-17T12:18:33.663Z,27.10
2022-08-17T12:21:33.215Z,26.70
2022-08-17T12:24:24.488Z,25.80
2022-08-17T12:26:58.366Z,25.10
2022-08-17T12:29:38.500Z,24.20
2022-08-17T12:32:13.799Z,23.90
2022-08-17T12:34:42.608Z,23.10
2022-08-17T12:37:22.076Z,22.90
2022-08-17T12:39:59.448Z,22.80
2022-08-17T12:42:31.663Z,23.00
2022-08-17T12:44:58.998Z,23.00
2022-08-17T12:47:29.487Z,23.40
2022-08-17T12:50:28.984Z,23.50
2022-08-17T12:53:01.653Z,23.50
2022-08-17T12:55:35.208Z,23.60
2022-08-17T12:58:02.485Z,23.90
2022-08-17T13:00:33.191Z,24.00
2022-08-17T13:03:13.139Z,24.00
2022-08-17T13:05:42.913Z,24.00
2022-08-17T13:08:23.377Z,23.50
2022-08-17T13:10:59.641Z,23.90
2022-08-17T13:13:35.303Z,23.90
2022-08-17T13:16:05.809Z,24.00
2022-08-17T13:18:38.828Z,24.00
2022-08-17T13:21:11.343Z,24.30
2022-08-17T13:23:38.261Z,24.30
2022-08-17T13:26:15.712Z,24.20
2022-08-17T13:28:51.733Z,24.20
2022-08-17T13:31:32.919Z,24.20
2022-08-17T13:34:13.691Z,23.80
2022-08-17T13:36:41.607Z,24.20
2022-08-17T13:39:18.827Z,24.30
2022-08-17T13:41:47.025Z,24.10
2022-08-17T13:44:34.275Z,23.70
2022-08-17T13:47:02.843Z,24.10
2022-08-17T13:49:42.062Z,23.60
2022-08-17T13:52:48.813Z,23.70
2022-08-17T13:55:27.704Z,23.90
2022-08-17T13:58:04.110Z,24.30
2022-08-17T14:00:36.707Z,24.30
2022-08-17T14:03:05.020Z,24.30
2022-08-17T14:05:32.390Z,24.50
2022-08-17T14:08:02.525Z,24.90
2022-08-17T14:10:37.051Z,24.70
2022-08-17T14:13:12.599Z,25.00
2022-08-17T14:15:54.003Z,25.00
2022-08-17T14:18:42.023Z,24.70
2022-08-17T14:21:11.325Z,24.70
2022-08-17T14:23:38.629Z,24.80
2022-08-17T14:26:05.559Z,24.80
2022-08-17T14:28:32.350Z,25.00
2022-08-17T14:31:00.827Z,24.90
2022-08-17T14:33:29.161Z,25.20
2022-08-17T14:35:57.575Z,25.10
2022-08-17T14:38:24.836Z,24.90
2022-08-17T14:40:52.124Z,24.90
2022-08-17T14:43:20.485Z,24.90
2022-08-17T14:45:47.496Z,24.80
2022-08-17T14:48:14.295Z,25.00
2022-08-17T14:50:42.484Z,24.50
2022-08-17T14:53:11.565Z,24.80
2022-08-17T14:55:40.499Z,24.50
2022-08-17T14:58:08.987Z,24.40
2022-08-17T15:00:36.289Z,24.80
2022-08-17T15:03:03.513Z,24.60
2022-08-17T15:05:33.888Z,24.60
2022-08-17T15:08:02.324Z,24.80
2022-08-17T15:10:30.633Z,24.60
2022-08-17T15:12:58.250Z,25.00
2022-08-17T15:15:25.103Z,25.10
2022-08-17T15:17:51.910Z,25.10
2022-08-17T15:20:22.072Z,25.20
2022-08-17T15:22:59.039Z,25.10
2022-08-17T15:25:28.928Z,25.20
2022-08-17T15:27:56.043Z,25.20
2022-08-17T15:30:24.078Z,25.50
2022-08-17T15:32:55.282Z,25.50
2022-08-17T15:35:28.005Z,25.60
2022-08-17T15:37:57.509Z,25.40
2022-08-17T15:40:25.126Z,25.70
2022-08-17T15:42:52.035Z,25.50
2022-08-17T15:45:24.917Z,25.60
2022-08-17T15:47:52.822Z,25.40
2022-08-17T15:50:22.694Z,25.40
2022-08-17T15:52:56.062Z,25.40
2022-08-17T15:55:24.248Z,25.40
2022-08-17T15:57:52.148Z,25.50
2022-08-17T16:00:19.375Z,25.30
2022-08-17T16:03:14.042Z,25.00
2022-08-17T16:05:35.225Z,25.20
2022-08-17T16:08:02.055Z,24.90
2022-08-17T16:10:34.542Z,24.90
2022-08-17T16:13:03.904Z,24.90
2022-08-17T16:15:31.719Z,24.60
2022-08-17T16:17:58.709Z,24.60
2022-08-17T16:20:25.938Z,24.70
2022-08-17T16:22:54.236Z,24.80
2022-08-17T16:25:50.406Z,24.80
2022-08-17T16:28:16.540Z,24.70
2022-08-17T16:30:44.037Z,24.60
2022-08-17T16:33:11.908Z,24.80
2022-08-17T16:35:39.329Z,24.60
2022-08-17T16:38:07.249Z,24.50
2022-08-17T16:40:35.986Z,24.30
2022-08-17T16:43:03.881Z,24.50
2022-08-17T16:45:36.348Z,24.50
2022-08-17T16:48:03.779Z,24.40
2022-08-17T16:50:31.886Z,24.40
2022-08-17T16:53:17.409Z,24.60
2022-08-17T16:55:45.992Z,24.50
2022-08-17T16:58:13.121Z,24.70
2022-08-17T17:00:42.191Z,24.90
2022-08-17T17:03:19.645Z,25.00
2022-08-17T17:05:57.738Z,24.80
2022-08-17T17:08:30.427Z,25.00
2022-08-17T17:11:03.804Z,24.90
2022-08-17T17:13:39.482Z,25.00
2022-08-17T17:16:26.556Z,24.60
2022-08-17T17:19:10.480Z,24.70
2022-08-17T17:22:00.256Z,24.50
2022-08-17T17:24:47.041Z,24.60
2022-08-17T17:27:23.864Z,24.50
2022-08-17T17:30:09.856Z,24.30
2022-08-17T17:33:00.377Z,24.30
2022-08-17T17:35:34.598Z,24.20
2022-08-17T17:38:10.986Z,24.40
2022-08-17T17:40:50.204Z,24.00
2022-08-17T17:43:40.518Z,23.90
2022-08-17T17:46:27.797Z,24.10
2022-08-17T17:48:58.067Z,24.00
2022-08-17T17:51:58.176Z,23.90
2022-08-17T17:54:38.287Z,23.90
2022-08-17T17:57:28.772Z,23.80
2022-08-17T18:00:15.222Z,23.60
2022-08-17T18:02:52.237Z,23.50
2022-08-17T18:05:50.096Z,23.40
2022-08-17T18:08:31.981Z,23.30
2022-08-17T18:11:04.761Z,23.30
2022-08-17T18:13:43.361Z,23.30
2022-08-17T18:16:14.195Z,23.20
2022-08-17T18:18:44.712Z,23.40
2022-08-17T18:21:21.364Z,23.30
2022-08-17T18:23:57.966Z,23.20
2022-08-17T18:26:39.329Z,22.80
2022-08-17T18:29:55.085Z,23.00
2022-08-17T18:32:42.030Z,22.90
2022-08-17T18:35:08.745Z,23.00
2022-08-17T18:37:40.760Z,22.50
2022-08-17T18:40:16.928Z,22.70
2022-08-17T18:43:11.761Z,22.40
2022-08-17T18:45:46.494Z,22.70
2022-08-17T18:48:48.799Z,22.70
2022-08-17T18:51:41.820Z,22.50
2022-08-17T18:54:22.436Z,22.60
2022-08-17T18:56:50.412Z,22.30
2022-08-17T18:59:33.788Z,22.60
2022-08-17T19:02:22.377Z,22.50
2022-08-17T19:05:11.101Z,22.20
2022-08-17T19:07:47.949Z,22.20
2022-08-17T19:10:47.012Z,22.10
2022-08-17T19:13:31.388Z,22.20
2022-08-17T19:16:15.137Z,22.20
2022-08-17T19:18:59.982Z,22.00
2022-08-17T19:21:41.656Z,22.20
2022-08-17T19:24:11.805Z,22.20
2022-08-17T19:26:54.309Z,22.20
2022-08-17T19:29:32.180Z,22.20
2022-08-17T19:32:01.277Z,22.10
2022-08-17T19:34:34.073Z,22.20
2022-08-17T19:37:20.708Z,22.20
2022-08-17T19:40:08.428Z,22.10
2022-08-17T19:43:05.471Z,22.10
2022-08-17T19:45:39.743Z,21.70
2022-08-17T19:48:13.863Z,22.10
2022-08-17T19:51:04.470Z,21.70
2022-08-17T19:54:03.777Z,21.70
2022-08-17T19:56:47.570Z,21.80
2022-08-17T19:59:46.332Z,21.90
2022-08-17T20:02:22.231Z,22.00
2022-08-17T20:04:52.546Z,21.60
2022-08-17T20:07:25.737Z,21.70
2022-08-17T20:10:02.581Z,21.70
2022-08-17T20:12:51.828Z,21.60
2022-08-17T20:15:29.590Z,21.50
2022-08-17T20:17:59.913Z,21.40
2022-08-17T20:20:58.480Z,21.40
2022-08-17T20:23:36.315Z,21.20
2022-08-17T20:26:19.436Z,21.20
2022-08-17T20:29:14.459Z,21.10
2022-08-17T20:31:50.575Z,21.10
2022-08-17T20:34:33.634Z,21.10
2022-08-17T20:37:24.783Z,21.20
2022-08-17T20:39:52.709Z,21.10
2022-08-17T20:42:22.682Z,20.90
2022-08-17T20:44:52.923Z,21.00
2022-08-17T20:48:15.107Z,20.90
2022-08-17T20:50:43.969Z,20.80
2022-08-17T20:53:13.566Z,20.80
2022-08-17T20:55:51.409Z,20.70
2022-08-17T20:58:30.104Z,21.00
2022-08-17T21:00:58.798Z,20.90
2022-08-17T21:03:43.143Z,20.60
2022-08-17T21:06:19.493Z,20.60
2022-08-17T21:08:58.907Z,20.60
2022-08-17T21:11:58.213Z,20.60
2022-08-17T21:14:33.186Z,20.70
2022-08-17T21:17:12.117Z,20.00
2022-08-17T21:20:17.644Z,20.60
2022-08-17T21:23:15.977Z,20.60
2022-08-17T21:26:02.375Z,20.40
2022-08-17T21:29:00.793Z,20.40
2022-08-17T21:31:35.993Z,20.50
2022-08-17T21:34:24.467Z,20.50
2022-08-17T21:36:53.257Z,20.80
2022-08-17T21:39:40.059Z,20.50
2022-08-17T21:42:07.419Z,20.20
2022-08-17T21:44:42.030Z,20.20
2022-08-17T21:47:26.524Z,20.40
2022-08-17T21:49:56.916Z,20.20
2022-08-17T21:52:28.980Z,20.20
2022-08-17T21:55:02.450Z,20.10
2022-08-17T21:57:41.785Z,20.30
2022-08-17T22:00:30.258Z,20.10
2022-08-17T22:03:02.570Z,20.10
2022-08-17T22:05:36.317Z,20.00
2022-08-17T22:08:22.445Z,20.10
2022-08-17T22:10:59.212Z,20.00
2022-08-17T22:13:29.751Z,20.10
2022-08-17T22:16:27.940Z,19.90
2022-08-17T22:18:57.994Z,20.10
2022-08-17T22:21:25.793Z,19.90
2022-08-17T22:24:05.696Z,19.80
2022-08-17T22:27:00.127Z,19.90
2022-08-17T22:29:47.856Z,19.60
2022-08-17T22:32:43.586Z,19.80
2022-08-17T22:35:29.343Z,19.70
2022-08-17T22:37:57.380Z,19.60
2022-08-17T22:40:42.449Z,19.80
2022-08-17T22:43:12.649Z,19.60
2022-08-17T22:45:51.425Z,19.50
2022-08-17T22:48:27.267Z,19.70
2022-08-17T22:51:12.717Z,19.40
2022-08-17T22:54:33.670Z,19.70
2022-08-17T22:57:21.913Z,19.40
2022-08-17T22:59:54.750Z,19.40
2022-08-17T23:02:23.833Z,19.40
2022-08-17T23:05:18.780Z,19.40
2022-08-17T23:07:47.256Z,19.60
2022-08-17T23:10:14.385Z,19.40
2022-08-17T23:12:41.411Z,19.40
2022-08-17T23:15:15.007Z,19.30
2022-08-17T23:17:41.958Z,19.20
2022-08-17T23:20:12.485Z,19.10
2022-08-17T23:22:51.776Z,19.40
2022-08-17T23:25:33.649Z,19.20
2022-08-17T23:28:02.115Z,19.30
2022-08-17T23:30:31.487Z,19.10
2022-08-17T23:33:01.330Z,19.10
2022-08-17T23:35:40.052Z,19.00
2022-08-17T23:38:12.198Z,19.10
2022-08-17T23:40:40.089Z,19.10
2022-08-17T23:43:23.416Z,19.20
2022-08-17T23:45:55.279Z,19.20
2022-08-17T23:48:34.949Z,18.90
2022-08-17T23:51:05.891Z,19.00
2022-08-17T23:53:36.551Z,19.20
2022-08-17T23:56:06.904Z,19.00
2022-08-17T23:58:42.340Z,19.00
